sensor_id;sensor_type;location;lat;lon;timestamp;temperature;humidity
13806;DHT22;6974;53.606;9.872;2024-01-16T00:00:58;2.10;99.90
13806;DHT22;6974;53.606;9.872;2024-01-16T00:03:24;2.10;99.90
13806;DHT22;6974;53.606;9.872;2024-01-16T00:05:51;2.00;99.90
13806;DHT22;6974;53.606;9.872;2024-01-16T00:08:18;2.00;99.90
13806;DHT22;6974;53.606;9.872;2024-01-16T00:10:45;2.00;99.90
13806;DHT22;6974;53.606;9.872;2024-01-16T00:13:13;2.00;99.90
13806;DHT22;6974;53.606;9.872;2024-01-16T00:15:41;2.00;99.90
13806;DHT22;6974;53.606;9.872;2024-01-16T00:18:08;1.80;99.90
13806;DHT22;6974;53.606;9.872;2024-01-16T00:20:35;1.80;99.90
13806;DHT22;6974;53.606;9.872;2024-01-16T00:23:02;1.80;99.90
13806;DHT22;6974;53.606;9.872;2024-01-16T00:25:29;1.70;99.90
13806;DHT22;6974;53.606;9.872;2024-01-16T00:27:56;1.70;99.90
13806;DHT22;6974;53.606;9.872;2024-01-16T00:30:22;1.60;99.90
13806;DHT22;6974;53.606;9.872;2024-01-16T00:32:51;1.70;99.90
13806;DHT22;6974;53.606;9.872;2024-01-16T00:35:18;1.70;99.90
13806;DHT22;6974;53.606;9.872;2024-01-16T00:37:45;1.80;99.90
13806;DHT22;6974;53.606;9.872;2024-01-16T00:40:12;1.80;99.90
13806;DHT22;6974;53.606;9.872;2024-01-16T00:42:39;1.90;99.90
13806;DHT22;6974;53.606;9.872;2024-01-16T00:45:06;1.90;99.90
13806;DHT22;6974;53.606;9.872;2024-01-16T00:47:33;1.90;99.90
13806;DHT22;6974;53.606;9.872;2024-01-16T00:50:01;1.90;99.90
13806;DHT22;6974;53.606;9.872;2024-01-16T00:52:28;2.00;99.90
13806;DHT22;6974;53.606;9.872;2024-01-16T00:54:55;2.00;99.90
13806;DHT22;6974;53.606;9.872;2024-01-16T00:57:22;2.00;99.90
13806;DHT22;6974;53.606;9.872;2024-01-16T00:59:49;2.00;99.90
13806;DHT22;6974;53.606;9.872;2024-01-16T01:02:15;2.00;99.90
13806;DHT22;6974;53.606;9.872;2024-01-16T01:04:42;2.00;99.90
13806;DHT22;6974;53.606;9.872;2024-01-16T01:07:12;2.00;99.90
13806;DHT22;6974;53.606;9.872;2024-01-16T01:09:39;2.00;99.90
13806;DHT22;6974;53.606;9.872;2024-01-16T01:12:06;2.00;99.90
13806;DHT22;6974;53.606;9.872;2024-01-16T01:14:33;2.00;99.90
13806;DHT22;6974;53.606;9.872;2024-01-16T01:17:00;2.00;99.90
13806;DHT22;6974;53.606;9.872;2024-01-16T01:19:27;2.10;99.90
13806;DHT22;6974;53.606;9.872;2024-01-16T01:21:54;2.10;99.90
13806;DHT22;6974;53.606;9.872;2024-01-16T01:24:23;2.10;99.90
13806;DHT22;6974;53.606;9.872;2024-01-16T01:26:49;2.00;99.90
13806;DHT22;6974;53.606;9.872;2024-01-16T01:29:16;2.10;99.90
13806;DHT22;6974;53.606;9.872;2024-01-16T01:31:45;2.10;99.90
13806;DHT22;6974;53.606;9.872;2024-01-16T01:34:13;2.10;99.90
13806;DHT22;6974;53.606;9.872;2024-01-16T01:36:40;2.10;99.90
13806;DHT22;6974;53.606;9.872;2024-01-16T01:39:08;2.10;99.90
13806;DHT22;6974;53.606;9.872;2024-01-16T01:41:38;2.20;99.90
13806;DHT22;6974;53.606;9.872;2024-01-16T01:44:06;2.10;99.90
13806;DHT22;6974;53.606;9.872;2024-01-16T01:46:33;2.10;99.90
13806;DHT22;6974;53.606;9.872;2024-01-16T01:49:01;2.10;99.90
13806;DHT22;6974;53.606;9.872;2024-01-16T01:51:28;2.10;99.90
13806;DHT22;6974;53.606;9.872;2024-01-16T01:53:55;2.10;99.90
13806;DHT22;6974;53.606;9.872;2024-01-16T01:56:24;2.10;99.90
13806;DHT22;6974;53.606;9.872;2024-01-16T01:58:54;2.10;99.90
13806;DHT22;6974;53.606;9.872;2024-01-16T02:01:26;2.10;99.90
13806;DHT22;6974;53.606;9.872;2024-01-16T02:03:55;2.10;99.90
13806;DHT22;6974;53.606;9.872;2024-01-16T02:06:24;2.00;99.90
13806;DHT22;6974;53.606;9.872;2024-01-16T02:08:51;2.10;99.90
13806;DHT22;6974;53.606;9.872;2024-01-16T02:11:18;2.10;99.90
13806;DHT22;6974;53.606;9.872;2024-01-16T02:13:45;2.00;99.90
13806;DHT22;6974;53.606;9.872;2024-01-16T02:16:20;2.00;99.90
13806;DHT22;6974;53.606;9.872;2024-01-16T02:18:47;2.00;99.90
13806;DHT22;6974;53.606;9.872;2024-01-16T02:21:17;2.00;99.90
13806;DHT22;6974;53.606;9.872;2024-01-16T02:23:46;2.00;99.90
13806;DHT22;6974;53.606;9.872;2024-01-16T02:26:14;1.90;99.90
13806;DHT22;6974;53.606;9.872;2024-01-16T02:28:41;1.90;99.90
13806;DHT22;6974;53.606;9.872;2024-01-16T02:31:08;1.80;99.90
13806;DHT22;6974;53.606;9.872;2024-01-16T02:33:35;1.80;99.90
13806;DHT22;6974;53.606;9.872;2024-01-16T02:36:03;1.80;99.90
13806;DHT22;6974;53.606;9.872;2024-01-16T02:38:30;1.80;99.90
13806;DHT22;6974;53.606;9.872;2024-01-16T02:40:58;1.70;99.90
13806;DHT22;6974;53.606;9.872;2024-01-16T02:43:25;1.80;99.90
13806;DHT22;6974;53.606;9.872;2024-01-16T02:45:53;1.80;99.90
13806;DHT22;6974;53.606;9.872;2024-01-16T02:48:20;1.80;99.90
13806;DHT22;6974;53.606;9.872;2024-01-16T02:50:47;1.80;99.90
13806;DHT22;6974;53.606;9.872;2024-01-16T02:53:14;1.80;99.90
13806;DHT22;6974;53.606;9.872;2024-01-16T02:55:41;1.70;99.90
13806;DHT22;6974;53.606;9.872;2024-01-16T02:58:09;1.70;99.90
13806;DHT22;6974;53.606;9.872;2024-01-16T03:00:36;1.70;99.90
13806;DHT22;6974;53.606;9.872;2024-01-16T03:03:04;1.70;99.90
13806;DHT22;6974;53.606;9.872;2024-01-16T03:05:31;1.70;99.90
13806;DHT22;6974;53.606;9.872;2024-01-16T03:07:58;1.70;99.90
13806;DHT22;6974;53.606;9.872;2024-01-16T03:10:25;1.60;99.90
13806;DHT22;6974;53.606;9.872;2024-01-16T03:12:52;1.60;99.90
13806;DHT22;6974;53.606;9.872;2024-01-16T03:15:20;1.60;99.90
13806;DHT22;6974;53.606;9.872;2024-01-16T03:17:47;1.70;99.90
13806;DHT22;6974;53.606;9.872;2024-01-16T03:20:15;1.70;99.90
13806;DHT22;6974;53.606;9.872;2024-01-16T03:22:42;1.70;99.90
13806;DHT22;6974;53.606;9.872;2024-01-16T03:25:10;1.70;99.90
13806;DHT22;6974;53.606;9.872;2024-01-16T03:27:37;1.70;99.90
13806;DHT22;6974;53.606;9.872;2024-01-16T03:30:05;1.80;99.90
13806;DHT22;6974;53.606;9.872;2024-01-16T03:32:35;1.80;99.90
13806;DHT22;6974;53.606;9.872;2024-01-16T03:35:02;1.80;99.90
13806;DHT22;6974;53.606;9.872;2024-01-16T03:37:29;1.80;99.90
13806;DHT22;6974;53.606;9.872;2024-01-16T03:39:56;1.80;99.90
13806;DHT22;6974;53.606;9.872;2024-01-16T03:42:23;1.80;99.90
13806;DHT22;6974;53.606;9.872;2024-01-16T03:44:50;1.90;99.90
13806;DHT22;6974;53.606;9.872;2024-01-16T03:47:17;1.90;99.90
13806;DHT22;6974;53.606;9.872;2024-01-16T03:49:46;1.90;99.90
13806;DHT22;6974;53.606;9.872;2024-01-16T03:52:13;1.80;99.90
13806;DHT22;6974;53.606;9.872;2024-01-16T03:54:40;1.90;99.90
13806;DHT22;6974;53.606;9.872;2024-01-16T03:57:06;1.90;99.90
13806;DHT22;6974;53.606;9.872;2024-01-16T03:59:36;1.90;99.90
13806;DHT22;6974;53.606;9.872;2024-01-16T04:02:03;1.90;99.90
13806;DHT22;6974;53.606;9.872;2024-01-16T04:04:30;1.80;99.90
13806;DHT22;6974;53.606;9.872;2024-01-16T04:06:58;1.80;99.90
13806;DHT22;6974;53.606;9.872;2024-01-16T04:09:25;1.70;99.90
13806;DHT22;6974;53.606;9.872;2024-01-16T04:11:52;1.60;99.90
13806;DHT22;6974;53.606;9.872;2024-01-16T04:14:19;1.60;99.90
13806;DHT22;6974;53.606;9.872;2024-01-16T04:16:47;1.60;99.90
13806;DHT22;6974;53.606;9.872;2024-01-16T04:19:14;1.60;99.90
13806;DHT22;6974;53.606;9.872;2024-01-16T04:21:41;1.70;99.90
13806;DHT22;6974;53.606;9.872;2024-01-16T04:24:09;1.70;99.90
13806;DHT22;6974;53.606;9.872;2024-01-16T04:26:36;1.70;99.90
13806;DHT22;6974;53.606;9.872;2024-01-16T04:29:03;1.70;99.90
13806;DHT22;6974;53.606;9.872;2024-01-16T04:31:30;1.70;99.90
13806;DHT22;6974;53.606;9.872;2024-01-16T04:33:58;1.70;99.90
13806;DHT22;6974;53.606;9.872;2024-01-16T04:36:25;1.70;99.90
13806;DHT22;6974;53.606;9.872;2024-01-16T04:38:52;1.70;99.90
13806;DHT22;6974;53.606;9.872;2024-01-16T04:41:20;1.70;99.90
13806;DHT22;6974;53.606;9.872;2024-01-16T04:43:47;1.60;99.90
13806;DHT22;6974;53.606;9.872;2024-01-16T04:46:14;1.60;99.90
13806;DHT22;6974;53.606;9.872;2024-01-16T04:48:41;1.60;99.90
13806;DHT22;6974;53.606;9.872;2024-01-16T04:51:08;1.60;99.90
13806;DHT22;6974;53.606;9.872;2024-01-16T04:53:35;1.60;99.90
13806;DHT22;6974;53.606;9.872;2024-01-16T04:56:02;1.60;99.90
13806;DHT22;6974;53.606;9.872;2024-01-16T04:58:30;1.60;99.90
13806;DHT22;6974;53.606;9.872;2024-01-16T05:00:57;1.50;99.90
13806;DHT22;6974;53.606;9.872;2024-01-16T05:03:24;1.60;99.90
13806;DHT22;6974;53.606;9.872;2024-01-16T05:05:51;1.60;99.90
13806;DHT22;6974;53.606;9.872;2024-01-16T05:08:18;1.60;99.90
13806;DHT22;6974;53.606;9.872;2024-01-16T05:10:44;1.60;99.90
13806;DHT22;6974;53.606;9.872;2024-01-16T05:13:11;1.60;99.90
13806;DHT22;6974;53.606;9.872;2024-01-16T05:15:40;1.60;99.90
13806;DHT22;6974;53.606;9.872;2024-01-16T05:18:07;1.60;99.90
13806;DHT22;6974;53.606;9.872;2024-01-16T05:20:34;1.60;99.90
13806;DHT22;6974;53.606;9.872;2024-01-16T05:23:01;1.60;99.90
13806;DHT22;6974;53.606;9.872;2024-01-16T05:25:28;1.70;99.90
13806;DHT22;6974;53.606;9.872;2024-01-16T05:27:55;1.70;99.90
13806;DHT22;6974;53.606;9.872;2024-01-16T05:30:22;1.70;99.90
13806;DHT22;6974;53.606;9.872;2024-01-16T05:32:50;1.70;99.90
13806;DHT22;6974;53.606;9.872;2024-01-16T05:35:18;1.70;99.90
13806;DHT22;6974;53.606;9.872;2024-01-16T05:37:45;1.70;99.90
13806;DHT22;6974;53.606;9.872;2024-01-16T05:40:11;1.70;99.90
13806;DHT22;6974;53.606;9.872;2024-01-16T05:42:38;1.70;99.90
13806;DHT22;6974;53.606;9.872;2024-01-16T05:45:06;1.70;99.90
13806;DHT22;6974;53.606;9.872;2024-01-16T05:47:33;1.70;99.90
13806;DHT22;6974;53.606;9.872;2024-01-16T05:50:02;1.70;99.90
13806;DHT22;6974;53.606;9.872;2024-01-16T05:52:29;1.70;99.90
13806;DHT22;6974;53.606;9.872;2024-01-16T05:54:56;1.70;99.90
13806;DHT22;6974;53.606;9.872;2024-01-16T05:57:25;1.70;99.90
13806;DHT22;6974;53.606;9.872;2024-01-16T05:59:52;1.70;99.90
13806;DHT22;6974;53.606;9.872;2024-01-16T06:02:19;1.70;99.90
13806;DHT22;6974;53.606;9.872;2024-01-16T06:04:46;1.80;99.90
13806;DHT22;6974;53.606;9.872;2024-01-16T06:07:14;1.80;99.90
13806;DHT22;6974;53.606;9.872;2024-01-16T06:09:41;1.80;99.90
13806;DHT22;6974;53.606;9.872;2024-01-16T06:12:08;1.70;99.90
13806;DHT22;6974;53.606;9.872;2024-01-16T06:14:35;1.70;99.90
13806;DHT22;6974;53.606;9.872;2024-01-16T06:17:01;1.70;99.90
13806;DHT22;6974;53.606;9.872;2024-01-16T06:19:31;1.70;99.90
13806;DHT22;6974;53.606;9.872;2024-01-16T06:21:58;1.80;99.90
13806;DHT22;6974;53.606;9.872;2024-01-16T06:24:26;1.70;99.90
13806;DHT22;6974;53.606;9.872;2024-01-16T06:26:53;1.70;99.90
13806;DHT22;6974;53.606;9.872;2024-01-16T06:29:20;1.80;99.90
13806;DHT22;6974;53.606;9.872;2024-01-16T06:31:46;1.80;99.90
13806;DHT22;6974;53.606;9.872;2024-01-16T06:34:13;1.70;99.90
13806;DHT22;6974;53.606;9.872;2024-01-16T06:36:40;1.80;99.90
13806;DHT22;6974;53.606;9.872;2024-01-16T06:39:07;1.80;99.90
13806;DHT22;6974;53.606;9.872;2024-01-16T06:41:35;1.80;99.90
13806;DHT22;6974;53.606;9.872;2024-01-16T06:44:02;1.80;99.90
13806;DHT22;6974;53.606;9.872;2024-01-16T06:46:29;1.80;99.90
13806;DHT22;6974;53.606;9.872;2024-01-16T06:48:55;1.90;99.90
13806;DHT22;6974;53.606;9.872;2024-01-16T06:51:22;1.90;99.90
13806;DHT22;6974;53.606;9.872;2024-01-16T06:53:49;1.90;99.90
13806;DHT22;6974;53.606;9.872;2024-01-16T06:56:16;1.90;99.90
13806;DHT22;6974;53.606;9.872;2024-01-16T06:58:44;1.90;99.90
13806;DHT22;6974;53.606;9.872;2024-01-16T07:01:10;1.90;99.90
13806;DHT22;6974;53.606;9.872;2024-01-16T07:03:37;1.80;99.90
13806;DHT22;6974;53.606;9.872;2024-01-16T07:06:04;1.80;99.90
13806;DHT22;6974;53.606;9.872;2024-01-16T07:08:31;1.80;99.90
13806;DHT22;6974;53.606;9.872;2024-01-16T07:10:58;1.80;99.90
13806;DHT22;6974;53.606;9.872;2024-01-16T07:13:25;1.80;99.90
13806;DHT22;6974;53.606;9.872;2024-01-16T07:15:53;1.80;99.90
13806;DHT22;6974;53.606;9.872;2024-01-16T07:18:20;1.80;99.90
13806;DHT22;6974;53.606;9.872;2024-01-16T07:20:47;1.80;99.90
13806;DHT22;6974;53.606;9.872;2024-01-16T07:23:14;1.90;99.90
13806;DHT22;6974;53.606;9.872;2024-01-16T07:25:41;1.90;99.90
13806;DHT22;6974;53.606;9.872;2024-01-16T07:28:07;1.80;99.90
13806;DHT22;6974;53.606;9.872;2024-01-16T07:30:34;1.90;99.90
13806;DHT22;6974;53.606;9.872;2024-01-16T07:33:04;1.90;99.90
13806;DHT22;6974;53.606;9.872;2024-01-16T07:35:31;1.90;99.90
13806;DHT22;6974;53.606;9.872;2024-01-16T07:37:57;1.80;99.90
13806;DHT22;6974;53.606;9.872;2024-01-16T07:40:24;1.90;99.90
13806;DHT22;6974;53.606;9.872;2024-01-16T07:42:51;1.90;99.90
13806;DHT22;6974;53.606;9.872;2024-01-16T07:45:18;1.90;99.90
13806;DHT22;6974;53.606;9.872;2024-01-16T07:47:45;1.90;99.90
13806;DHT22;6974;53.606;9.872;2024-01-16T07:50:13;1.80;99.90
13806;DHT22;6974;53.606;9.872;2024-01-16T07:52:40;1.80;99.90
13806;DHT22;6974;53.606;9.872;2024-01-16T07:55:07;1.90;99.90
13806;DHT22;6974;53.606;9.872;2024-01-16T07:57:34;1.90;99.90
13806;DHT22;6974;53.606;9.872;2024-01-16T08:00:01;1.90;99.90
13806;DHT22;6974;53.606;9.872;2024-01-16T08:02:32;1.90;99.90
13806;DHT22;6974;53.606;9.872;2024-01-16T08:04:59;1.90;99.90
13806;DHT22;6974;53.606;9.872;2024-01-16T08:07:28;1.90;99.90
13806;DHT22;6974;53.606;9.872;2024-01-16T08:09:55;1.90;99.90
13806;DHT22;6974;53.606;9.872;2024-01-16T08:12:22;1.90;99.90
13806;DHT22;6974;53.606;9.872;2024-01-16T08:14:49;1.90;99.90
13806;DHT22;6974;53.606;9.872;2024-01-16T08:17:15;1.90;99.90
13806;DHT22;6974;53.606;9.872;2024-01-16T08:19:43;2.00;99.90
13806;DHT22;6974;53.606;9.872;2024-01-16T08:22:10;2.10;99.90
13806;DHT22;6974;53.606;9.872;2024-01-16T08:24:38;2.10;99.90
13806;DHT22;6974;53.606;9.872;2024-01-16T08:27:05;2.20;99.90
13806;DHT22;6974;53.606;9.872;2024-01-16T08:29:32;2.20;99.90
13806;DHT22;6974;53.606;9.872;2024-01-16T08:31:58;2.20;99.90
13806;DHT22;6974;53.606;9.872;2024-01-16T08:34:25;2.20;99.90
13806;DHT22;6974;53.606;9.872;2024-01-16T08:36:52;2.20;99.90
13806;DHT22;6974;53.606;9.872;2024-01-16T08:39:22;2.20;99.90
13806;DHT22;6974;53.606;9.872;2024-01-16T08:41:51;2.20;99.90
13806;DHT22;6974;53.606;9.872;2024-01-16T08:44:18;2.20;99.90
13806;DHT22;6974;53.606;9.872;2024-01-16T08:46:44;2.20;99.90
13806;DHT22;6974;53.606;9.872;2024-01-16T08:49:11;2.30;99.90
13806;DHT22;6974;53.606;9.872;2024-01-16T08:51:39;2.20;99.90
13806;DHT22;6974;53.606;9.872;2024-01-16T08:54:06;2.20;99.90
13806;DHT22;6974;53.606;9.872;2024-01-16T08:56:33;2.20;99.90
13806;DHT22;6974;53.606;9.872;2024-01-16T08:59:01;2.10;99.90
13806;DHT22;6974;53.606;9.872;2024-01-16T09:01:28;2.20;99.90
13806;DHT22;6974;53.606;9.872;2024-01-16T09:03:56;2.20;99.90
13806;DHT22;6974;53.606;9.872;2024-01-16T09:06:22;2.30;99.90
13806;DHT22;6974;53.606;9.872;2024-01-16T09:08:49;2.30;99.90
13806;DHT22;6974;53.606;9.872;2024-01-16T09:11:16;2.40;99.90
13806;DHT22;6974;53.606;9.872;2024-01-16T09:13:43;2.40;99.90
13806;DHT22;6974;53.606;9.872;2024-01-16T09:16:11;2.50;99.90
13806;DHT22;6974;53.606;9.872;2024-01-16T09:18:38;2.40;99.90
13806;DHT22;6974;53.606;9.872;2024-01-16T09:21:05;2.40;99.90
13806;DHT22;6974;53.606;9.872;2024-01-16T09:23:32;2.40;99.90
13806;DHT22;6974;53.606;9.872;2024-01-16T09:25:59;2.40;99.90
13806;DHT22;6974;53.606;9.872;2024-01-16T09:28:25;2.50;99.90
13806;DHT22;6974;53.606;9.872;2024-01-16T09:30:54;2.50;99.90
13806;DHT22;6974;53.606;9.872;2024-01-16T09:33:23;2.50;99.90
13806;DHT22;6974;53.606;9.872;2024-01-16T09:35:50;2.50;99.90
13806;DHT22;6974;53.606;9.872;2024-01-16T09:38:17;2.50;99.90
13806;DHT22;6974;53.606;9.872;2024-01-16T09:40:44;2.50;99.90
13806;DHT22;6974;53.606;9.872;2024-01-16T09:43:12;2.40;99.90
13806;DHT22;6974;53.606;9.872;2024-01-16T09:45:38;2.40;99.90
13806;DHT22;6974;53.606;9.872;2024-01-16T09:48:06;2.50;99.90
13806;DHT22;6974;53.606;9.872;2024-01-16T09:50:35;2.50;99.90
13806;DHT22;6974;53.606;9.872;2024-01-16T09:53:02;2.50;99.90
13806;DHT22;6974;53.606;9.872;2024-01-16T09:55:29;2.60;99.90
13806;DHT22;6974;53.606;9.872;2024-01-16T09:57:57;2.50;99.90
13806;DHT22;6974;53.606;9.872;2024-01-16T10:00:24;2.60;99.90
13806;DHT22;6974;53.606;9.872;2024-01-16T10:02:52;2.60;99.90
13806;DHT22;6974;53.606;9.872;2024-01-16T10:05:24;2.60;99.90
13806;DHT22;6974;53.606;9.872;2024-01-16T10:07:52;2.70;99.90
13806;DHT22;6974;53.606;9.872;2024-01-16T10:10:19;2.70;99.90
13806;DHT22;6974;53.606;9.872;2024-01-16T10:12:48;2.60;99.90
13806;DHT22;6974;53.606;9.872;2024-01-16T10:15:16;2.70;99.90
13806;DHT22;6974;53.606;9.872;2024-01-16T10:17:43;2.70;99.90
13806;DHT22;6974;53.606;9.872;2024-01-16T10:20:11;2.70;99.90
13806;DHT22;6974;53.606;9.872;2024-01-16T10:22:39;2.80;99.90
13806;DHT22;6974;53.606;9.872;2024-01-16T10:25:09;2.80;99.90
13806;DHT22;6974;53.606;9.872;2024-01-16T10:27:38;2.80;99.90
13806;DHT22;6974;53.606;9.872;2024-01-16T10:30:06;2.80;99.90
13806;DHT22;6974;53.606;9.872;2024-01-16T10:32:35;2.80;99.90
13806;DHT22;6974;53.606;9.872;2024-01-16T10:35:07;2.80;99.90
13806;DHT22;6974;53.606;9.872;2024-01-16T10:37:44;2.80;99.90
13806;DHT22;6974;53.606;9.872;2024-01-16T10:40:15;2.70;99.90
13806;DHT22;6974;53.606;9.872;2024-01-16T10:42:42;2.80;99.90
13806;DHT22;6974;53.606;9.872;2024-01-16T10:45:17;2.80;99.90
13806;DHT22;6974;53.606;9.872;2024-01-16T10:47:45;2.90;99.90
13806;DHT22;6974;53.606;9.872;2024-01-16T10:50:12;2.90;99.90
13806;DHT22;6974;53.606;9.872;2024-01-16T10:52:45;3.00;99.90
13806;DHT22;6974;53.606;9.872;2024-01-16T10:55:19;3.00;99.90
13806;DHT22;6974;53.606;9.872;2024-01-16T10:57:48;3.10;99.90
13806;DHT22;6974;53.606;9.872;2024-01-16T11:00:19;3.10;99.90
13806;DHT22;6974;53.606;9.872;2024-01-16T11:02:54;3.10;99.90
13806;DHT22;6974;53.606;9.872;2024-01-16T11:05:22;3.10;99.90
13806;DHT22;6974;53.606;9.872;2024-01-16T11:07:50;3.10;99.90
13806;DHT22;6974;53.606;9.872;2024-01-16T11:10:25;3.10;99.90
13806;DHT22;6974;53.606;9.872;2024-01-16T11:12:53;3.10;99.90
13806;DHT22;6974;53.606;9.872;2024-01-16T11:15:24;3.10;99.90
13806;DHT22;6974;53.606;9.872;2024-01-16T11:18:00;3.20;99.90
13806;DHT22;6974;53.606;9.872;2024-01-16T11:20:28;3.20;99.90
13806;DHT22;6974;53.606;9.872;2024-01-16T11:22:57;3.30;99.90
13806;DHT22;6974;53.606;9.872;2024-01-16T11:25:33;3.30;99.90
13806;DHT22;6974;53.606;9.872;2024-01-16T11:28:09;3.40;99.90
13806;DHT22;6974;53.606;9.872;2024-01-16T11:30:36;3.40;99.90
13806;DHT22;6974;53.606;9.872;2024-01-16T11:33:06;3.40;99.90
13806;DHT22;6974;53.606;9.872;2024-01-16T11:35:39;3.40;99.90
13806;DHT22;6974;53.606;9.872;2024-01-16T11:38:08;3.40;99.90
13806;DHT22;6974;53.606;9.872;2024-01-16T11:40:40;3.40;99.90
13806;DHT22;6974;53.606;9.872;2024-01-16T11:43:36;3.40;99.90
13806;DHT22;6974;53.606;9.872;2024-01-16T11:46:05;3.50;99.90
13806;DHT22;6974;53.606;9.872;2024-01-16T11:48:33;3.50;99.90
13806;DHT22;6974;53.606;9.872;2024-01-16T11:51:00;3.50;99.90
13806;DHT22;6974;53.606;9.872;2024-01-16T11:53:34;3.50;99.90
13806;DHT22;6974;53.606;9.872;2024-01-16T11:56:41;3.40;99.90
13806;DHT22;6974;53.606;9.872;2024-01-16T11:59:42;3.40;99.90
13806;DHT22;6974;53.606;9.872;2024-01-16T12:02:21;3.40;99.90
13806;DHT22;6974;53.606;9.872;2024-01-16T12:04:53;3.40;99.90
13806;DHT22;6974;53.606;9.872;2024-01-16T12:07:22;3.40;99.90
13806;DHT22;6974;53.606;9.872;2024-01-16T12:09:50;3.30;99.90
13806;DHT22;6974;53.606;9.872;2024-01-16T12:12:19;3.40;99.90
13806;DHT22;6974;53.606;9.872;2024-01-16T12:14:56;3.50;99.90
13806;DHT22;6974;53.606;9.872;2024-01-16T12:17:23;3.50;99.90
13806;DHT22;6974;53.606;9.872;2024-01-16T12:19:50;3.50;99.90
13806;DHT22;6974;53.606;9.872;2024-01-16T12:22:20;3.60;99.90
13806;DHT22;6974;53.606;9.872;2024-01-16T12:24:49;3.50;99.90
13806;DHT22;6974;53.606;9.872;2024-01-16T12:27:17;3.50;99.90
13806;DHT22;6974;53.606;9.872;2024-01-16T12:30:05;3.50;99.90
13806;DHT22;6974;53.606;9.872;2024-01-16T12:32:34;3.50;99.90
13806;DHT22;6974;53.606;9.872;2024-01-16T12:35:01;3.50;99.90
13806;DHT22;6974;53.606;9.872;2024-01-16T12:37:30;3.50;99.90
13806;DHT22;6974;53.606;9.872;2024-01-16T12:39:57;3.60;99.90
13806;DHT22;6974;53.606;9.872;2024-01-16T12:42:25;3.50;99.90
13806;DHT22;6974;53.606;9.872;2024-01-16T12:44:53;3.50;99.90
13806;DHT22;6974;53.606;9.872;2024-01-16T12:47:21;3.60;99.90
13806;DHT22;6974;53.606;9.872;2024-01-16T12:49:48;3.60;99.90
13806;DHT22;6974;53.606;9.872;2024-01-16T12:52:20;3.50;99.90
13806;DHT22;6974;53.606;9.872;2024-01-16T12:54:48;3.60;99.90
13806;DHT22;6974;53.606;9.872;2024-01-16T12:57:19;3.60;99.90
13806;DHT22;6974;53.606;9.872;2024-01-16T12:59:53;3.60;99.90
13806;DHT22;6974;53.606;9.872;2024-01-16T13:02:22;3.60;99.90
13806;DHT22;6974;53.606;9.872;2024-01-16T13:04:57;3.60;99.90
13806;DHT22;6974;53.606;9.872;2024-01-16T13:07:26;3.60;99.90
13806;DHT22;6974;53.606;9.872;2024-01-16T13:10:07;3.50;99.90
13806;DHT22;6974;53.606;9.872;2024-01-16T13:12:34;3.50;99.90
13806;DHT22;6974;53.606;9.872;2024-01-16T13:15:04;3.50;99.90
13806;DHT22;6974;53.606;9.872;2024-01-16T13:17:34;3.50;99.90
13806;DHT22;6974;53.606;9.872;2024-01-16T13:20:02;3.40;99.90
13806;DHT22;6974;53.606;9.872;2024-01-16T13:22:32;3.50;99.90
13806;DHT22;6974;53.606;9.872;2024-01-16T13:25:00;3.40;99.90
13806;DHT22;6974;53.606;9.872;2024-01-16T13:27:27;3.40;99.90
13806;DHT22;6974;53.606;9.872;2024-01-16T13:29:57;3.40;99.90
13806;DHT22;6974;53.606;9.872;2024-01-16T13:32:26;3.40;99.90
13806;DHT22;6974;53.606;9.872;2024-01-16T13:34:53;3.40;99.90
13806;DHT22;6974;53.606;9.872;2024-01-16T13:37:22;3.40;99.90
13806;DHT22;6974;53.606;9.872;2024-01-16T13:39:49;3.40;99.90
13806;DHT22;6974;53.606;9.872;2024-01-16T13:42:16;3.40;99.90
13806;DHT22;6974;53.606;9.872;2024-01-16T13:44:46;3.40;99.90
13806;DHT22;6974;53.606;9.872;2024-01-16T13:47:14;3.40;99.90
13806;DHT22;6974;53.606;9.872;2024-01-16T13:49:46;3.40;99.90
13806;DHT22;6974;53.606;9.872;2024-01-16T13:52:14;3.40;99.90
13806;DHT22;6974;53.606;9.872;2024-01-16T13:54:42;3.40;99.90
13806;DHT22;6974;53.606;9.872;2024-01-16T13:57:09;3.40;99.90
13806;DHT22;6974;53.606;9.872;2024-01-16T13:59:37;3.40;99.90
13806;DHT22;6974;53.606;9.872;2024-01-16T14:02:04;3.40;99.90
13806;DHT22;6974;53.606;9.872;2024-01-16T14:04:33;3.40;99.90
13806;DHT22;6974;53.606;9.872;2024-01-16T14:07:02;3.40;99.90
13806;DHT22;6974;53.606;9.872;2024-01-16T14:09:34;3.30;99.90
13806;DHT22;6974;53.606;9.872;2024-01-16T14:12:01;3.20;99.90
13806;DHT22;6974;53.606;9.872;2024-01-16T14:14:29;3.30;99.90
13806;DHT22;6974;53.606;9.872;2024-01-16T14:16:57;3.20;99.90
13806;DHT22;6974;53.606;9.872;2024-01-16T14:19:24;3.30;99.90
13806;DHT22;6974;53.606;9.872;2024-01-16T14:21:53;3.30;99.90
13806;DHT22;6974;53.606;9.872;2024-01-16T14:24:23;3.30;99.90
13806;DHT22;6974;53.606;9.872;2024-01-16T14:26:50;3.30;99.90
13806;DHT22;6974;53.606;9.872;2024-01-16T14:29:18;3.30;99.90
13806;DHT22;6974;53.606;9.872;2024-01-16T14:31:45;3.20;99.90
13806;DHT22;6974;53.606;9.872;2024-01-16T14:34:14;3.20;99.90
13806;DHT22;6974;53.606;9.872;2024-01-16T14:36:42;3.30;99.90
13806;DHT22;6974;53.606;9.872;2024-01-16T14:39:09;3.30;99.90
13806;DHT22;6974;53.606;9.872;2024-01-16T14:41:41;3.20;99.90
13806;DHT22;6974;53.606;9.872;2024-01-16T14:44:09;3.30;99.90
13806;DHT22;6974;53.606;9.872;2024-01-16T14:46:36;3.20;99.90
13806;DHT22;6974;53.606;9.872;2024-01-16T14:49:03;3.20;99.90
13806;DHT22;6974;53.606;9.872;2024-01-16T14:51:31;3.10;99.90
13806;DHT22;6974;53.606;9.872;2024-01-16T14:53:58;3.10;99.90
13806;DHT22;6974;53.606;9.872;2024-01-16T14:56:27;3.10;99.90
13806;DHT22;6974;53.606;9.872;2024-01-16T14:58:56;3.10;99.90
13806;DHT22;6974;53.606;9.872;2024-01-16T15:01:23;3.10;99.90
13806;DHT22;6974;53.606;9.872;2024-01-16T15:03:50;3.10;99.90
13806;DHT22;6974;53.606;9.872;2024-01-16T15:06:17;3.20;99.90
13806;DHT22;6974;53.606;9.872;2024-01-16T15:08:45;3.10;99.90
13806;DHT22;6974;53.606;9.872;2024-01-16T15:11:13;3.00;99.90
13806;DHT22;6974;53.606;9.872;2024-01-16T15:13:43;3.00;99.90
13806;DHT22;6974;53.606;9.872;2024-01-16T15:16:12;3.00;99.90
13806;DHT22;6974;53.606;9.872;2024-01-16T15:18:42;3.10;99.90
13806;DHT22;6974;53.606;9.872;2024-01-16T15:21:09;3.10;99.90
13806;DHT22;6974;53.606;9.872;2024-01-16T15:23:38;3.10;99.90
13806;DHT22;6974;53.606;9.872;2024-01-16T15:26:07;3.10;99.90
13806;DHT22;6974;53.606;9.872;2024-01-16T15:28:34;3.10;99.90
13806;DHT22;6974;53.606;9.872;2024-01-16T15:31:01;3.20;99.90
13806;DHT22;6974;53.606;9.872;2024-01-16T15:33:39;3.20;99.90
13806;DHT22;6974;53.606;9.872;2024-01-16T15:36:06;3.20;99.90
13806;DHT22;6974;53.606;9.872;2024-01-16T15:38:33;3.20;99.90
13806;DHT22;6974;53.606;9.872;2024-01-16T15:41:02;3.10;99.90
13806;DHT22;6974;53.606;9.872;2024-01-16T15:43:32;3.20;99.90
13806;DHT22;6974;53.606;9.872;2024-01-16T15:46:00;3.20;99.90
13806;DHT22;6974;53.606;9.872;2024-01-16T15:48:29;3.20;99.90
13806;DHT22;6974;53.606;9.872;2024-01-16T15:51:01;3.20;99.90
13806;DHT22;6974;53.606;9.872;2024-01-16T15:53:32;3.20;99.90
13806;DHT22;6974;53.606;9.872;2024-01-16T15:56:00;3.20;99.90
13806;DHT22;6974;53.606;9.872;2024-01-16T15:58:27;3.20;99.90
13806;DHT22;6974;53.606;9.872;2024-01-16T16:00:57;3.10;99.90
13806;DHT22;6974;53.606;9.872;2024-01-16T16:03:26;3.20;99.90
13806;DHT22;6974;53.606;9.872;2024-01-16T16:05:53;3.20;99.90
13806;DHT22;6974;53.606;9.872;2024-01-16T16:08:22;3.20;99.90